^^
Saratoga-Weather Station Historical Data
Daily Summary for September 1, 2021 Units:  Both    English   Metric
Daily Weekly Monthly Yearly Custom
  High: Low: Average:
Temperature: 53.8 °F /  12.1 °C 45.3 °F /  7.4 °C 50.5 °F /  10.3 °C
Dew Point: 50.9 °F /  10.5 °C 43.7 °F /  6.5 °C 47.8 °F /  8.8 °C
Humidity: 94% 81% 90%
Wind Speed: 8.1mph /  13km/h - 1.2mph /  1.9km/h
Wind Gust: 10mph /  16.1km/h - -
Wind- - WSW
Pressure: 29.6 in /  1003.0 hPa 29.6 in /  1001.0 hPa -
Precipitation: 0.17 in /  4.3 mm    
Historical Graphs
 
 
Tabular Data for September 1, 2021
Time Temperature Dew Point Pressure Wind Wind Speed Wind Gust Humidity Rainfall Rate (Hourly) solar
00:02 52.3 °F /  11.3 °C 50.7 °F /  10.4 °C 29.6in /  1002.0hPa Calm   1mph /  1.6km/h 94% 0in /  0.0mm 0 W/m2
00:07 52.5 °F /  11.4 °C 50.9 °F /  10.5 °C 29.6in /  1002.0hPa Calm   3mph /  4.8km/h 94% 0in /  0.0mm 0 W/m2
00:12 52.5 °F /  11.4 °C 50.5 °F /  10.3 °C 29.6in /  1002.0hPa WNW 2mph /  3.2km/h 4mph /  6.4km/h 93% 0in /  0.0mm 0 W/m2
00:17 52.7 °F /  11.5 °C 50.7 °F /  10.4 °C 29.6in /  1002.0hPa West 2.9mph /  4.7km/h 5mph /  8km/h 93% 0in /  0.0mm 0 W/m2
00:22 52.7 °F /  11.5 °C 50.7 °F /  10.4 °C 29.6in /  1002.0hPa North 4mph /  6.4km/h 6mph /  9.7km/h 93% 0in /  0.0mm 0 W/m2
00:27 52.9 °F /  11.6 °C 50.9 °F /  10.5 °C 29.6in /  1002.0hPa Calm     93% 0in /  0.0mm 0 W/m2
00:32 52.7 °F /  11.5 °C 50.7 °F /  10.4 °C 29.6in /  1001.7hPa NW 2mph /  3.2km/h 4mph /  6.4km/h 93% 0in /  0.0mm 0 W/m2
00:37 52.7 °F /  11.5 °C 50.7 °F /  10.4 °C 29.6in /  1001.7hPa Calm   1mph /  1.6km/h 93% 0in /  0.0mm 0 W/m2
00:42 52.5 °F /  11.4 °C 50.5 °F /  10.3 °C 29.6in /  1001.7hPa WNW 4.9mph /  7.9km/h 5mph /  8km/h 93% 0in /  0.0mm 0 W/m2
00:47 52.5 °F /  11.4 °C 50.5 °F /  10.3 °C 29.6in /  1001.7hPa WNW 2mph /  3.2km/h 2mph /  3.2km/h 93% 0in /  0.0mm 0 W/m2
00:52 52.3 °F /  11.3 °C 50.4 °F /  10.2 °C 29.6in /  1002.0hPa NW 0.9mph /  1.4km/h 4mph /  6.4km/h 93% 0in /  0.0mm 0 W/m2
00:57 52.3 °F /  11.3 °C 50.4 °F /  10.2 °C 29.6in /  1001.7hPa Calm   2mph /  3.2km/h 93% 0in /  0.0mm 0 W/m2
01:02 52.3 °F /  11.3 °C 50.4 °F /  10.2 °C 29.6in /  1001.4hPa NNW 0.9mph /  1.4km/h 2mph /  3.2km/h 93% 0in /  0.0mm 0 W/m2
01:07 52.2 °F /  11.2 °C 50.2 °F /  10.1 °C 29.6in /  1001.4hPa Calm   2mph /  3.2km/h 93% 0in /  0.0mm 0 W/m2
01:13 52.2 °F /  11.2 °C 50.2 °F /  10.1 °C 29.6in /  1001.4hPa NW 2mph /  3.2km/h 2mph /  3.2km/h 93% 0in /  0.0mm 0 W/m2
01:18 52.2 °F /  11.2 °C 50.2 °F /  10.1 °C 29.6in /  1001.4hPa West 2mph /  3.2km/h 3mph /  4.8km/h 93% 0in /  0.0mm 0 W/m2
01:23 52.2 °F /  11.2 °C 50.2 °F /  10.1 °C 29.6in /  1001.4hPa WNW 2mph /  3.2km/h 6mph /  9.7km/h 93% 0in /  0.0mm 0 W/m2
01:28 52.2 °F /  11.2 °C 50.2 °F /  10.1 °C 29.6in /  1001.4hPa West 2.9mph /  4.7km/h 3mph /  4.8km/h 93% 0in /  0.0mm 0 W/m2
01:33 52.2 °F /  11.2 °C 50.2 °F /  10.1 °C 29.6in /  1001.7hPa Calm   5mph /  8km/h 93% 0in /  0.0mm 0 W/m2
01:38 52.2 °F /  11.2 °C 50.2 °F /  10.1 °C 29.6in /  1001.4hPa NW 0.9mph /  1.4km/h 2mph /  3.2km/h 93% 0in /  0.0mm 0 W/m2
01:43 52 °F /  11.1 °C 50 °F /  10 °C 29.6in /  1001.4hPa Calm     93% 0in /  0.0mm 0 W/m2
01:48 52 °F /  11.1 °C 50 °F /  10 °C 29.6in /  1001.4hPa NW 0.9mph /  1.4km/h 2mph /  3.2km/h 93% 0in /  0.0mm 0 W/m2
01:53 51.8 °F /  11 °C 49.8 °F /  9.9 °C 29.6in /  1001.4hPa Calm   2mph /  3.2km/h 93% 0in /  0.0mm 0 W/m2
01:58 51.6 °F /  10.9 °C 49.6 °F /  9.8 °C 29.6in /  1001.4hPa Calm   1mph /  1.6km/h 93% 0in /  0.0mm 0 W/m2
02:03 51.6 °F /  10.9 °C 50 °F /  10 °C 29.6in /  1001.4hPa Calm   2mph /  3.2km/h 94% 0in /  0.0mm 0 W/m2
02:08 51.6 °F /  10.9 °C 50 °F /  10 °C 29.6in /  1001.7hPa Calm   1mph /  1.6km/h 94% 0in /  0.0mm 0 W/m2
02:13 51.4 °F /  10.8 °C 49.8 °F /  9.9 °C 29.6in /  1001.4hPa Calm     94% 0in /  0.0mm 0 W/m2
02:18 51.3 °F /  10.7 °C 49.6 °F /  9.8 °C 29.6in /  1001.4hPa Calm   1mph /  1.6km/h 94% 0in /  0.0mm 0 W/m2
02:23 51.3 °F /  10.7 °C 49.6 °F /  9.8 °C 29.6in /  1001.4hPa Calm     94% 0in /  0.0mm 0 W/m2
02:28 51.1 °F /  10.6 °C 49.5 °F /  9.7 °C 29.6in /  1001.4hPa Calm     94% 0in /  0.0mm 0 W/m2
02:33 51.1 °F /  10.6 °C 49.5 °F /  9.7 °C 29.6in /  1001.4hPa Calm     94% 0in /  0.0mm 0 W/m2
02:38 50.9 °F /  10.5 °C 49.3 °F /  9.6 °C 29.6in /  1001.4hPa Calm   2mph /  3.2km/h 94% 0in /  0.0mm 0 W/m2
02:43 50.7 °F /  10.4 °C 49.1 °F /  9.5 °C 29.6in /  1001.4hPa Calm   1mph /  1.6km/h 94% 0in /  0.0mm 0 W/m2
02:48 50.7 °F /  10.4 °C 49.1 °F /  9.5 °C 29.6in /  1001.4hPa Calm   4mph /  6.4km/h 94% 0in /  0.0mm 0 W/m2
02:53 50.9 °F /  10.5 °C 49.3 °F /  9.6 °C 29.6in /  1001.4hPa Calm     94% 0in /  0.0mm 0 W/m2
02:58 50.7 °F /  10.4 °C 49.1 °F /  9.5 °C 29.6in /  1001.4hPa North 2.9mph /  4.7km/h 4mph /  6.4km/h 94% 0in /  0.0mm 0 W/m2
03:03 50.7 °F /  10.4 °C 49.1 °F /  9.5 °C 29.6in /  1001.4hPa Calm   3mph /  4.8km/h 94% 0in /  0.0mm 0 W/m2
03:08 50.9 °F /  10.5 °C 49.3 °F /  9.6 °C 29.6in /  1001.4hPa Calm   1mph /  1.6km/h 94% 0in /  0.0mm 0 W/m2
03:13 50.9 °F /  10.5 °C 49.3 °F /  9.6 °C 29.6in /  1001.7hPa Calm   3mph /  4.8km/h 94% 0in /  0.0mm 0 W/m2
03:18 50.9 °F /  10.5 °C 49.3 °F /  9.6 °C 29.6in /  1001.7hPa North 2mph /  3.2km/h 4mph /  6.4km/h 94% 0in /  0.0mm 0 W/m2
03:23 51.1 °F /  10.6 °C 49.5 °F /  9.7 °C 29.6in /  1001.7hPa NNW 2mph /  3.2km/h 2mph /  3.2km/h 94% 0in /  0.0mm 0 W/m2
03:28 51.1 °F /  10.6 °C 49.1 °F /  9.5 °C 29.6in /  1001.7hPa Calm   3mph /  4.8km/h 93% 0in /  0.0mm 0 W/m2
03:33 51.1 °F /  10.6 °C 49.1 °F /  9.5 °C 29.6in /  1001.7hPa WNW 0.9mph /  1.4km/h 3mph /  4.8km/h 93% 0in /  0.0mm 0 W/m2
03:38 51.1 °F /  10.6 °C 49.1 °F /  9.5 °C 29.6in /  1001.7hPa Calm   2mph /  3.2km/h 93% 0in /  0.0mm 0 W/m2
03:43 51.1 °F /  10.6 °C 49.1 °F /  9.5 °C 29.6in /  1002.0hPa West 0.9mph /  1.4km/h 6mph /  9.7km/h 93% 0in /  0.0mm 0 W/m2
03:48 51.1 °F /  10.6 °C 48.9 °F /  9.4 °C 29.6in /  1001.7hPa Calm   5mph /  8km/h 92% 0in /  0.0mm 0 W/m2
04:06 50.4 °F /  10.2 °C 48.2 °F /  9 °C 29.6in /  1001.7hPa Calm     92% 0in /  0.0mm 0 W/m2
04:11 50.2 °F /  10.1 °C 48 °F /  8.9 °C 29.6in /  1001.7hPa Calm     92% 0in /  0.0mm 0 W/m2
04:16 49.8 °F /  9.9 °C 47.7 °F /  8.7 °C 29.6in /  1001.4hPa Calm   2mph /  3.2km/h 92% 0in /  0.0mm 0 W/m2
04:21 49.6 °F /  9.8 °C 47.5 °F /  8.6 °C 29.6in /  1001.4hPa NW 2mph /  3.2km/h 2mph /  3.2km/h 92% 0in /  0.0mm 0 W/m2
04:26 49.5 °F /  9.7 °C 47.5 °F /  8.6 °C 29.6in /  1001.4hPa NNW 0.9mph /  1.4km/h 3mph /  4.8km/h 93% 0in /  0.0mm 0 W/m2
04:31 49.6 °F /  9.8 °C 47.7 °F /  8.7 °C 29.6in /  1001.4hPa Calm   3mph /  4.8km/h 93% 0in /  0.0mm 0 W/m2
04:36 49.6 °F /  9.8 °C 47.5 °F /  8.6 °C 29.6in /  1001.4hPa Calm   4mph /  6.4km/h 92% 0in /  0.0mm 0 W/m2
04:41 49.5 °F /  9.7 °C 47.3 °F /  8.5 °C 29.6in /  1001.7hPa Calm   2mph /  3.2km/h 92% 0in /  0.0mm 0 W/m2
04:46 49.5 °F /  9.7 °C 47.3 °F /  8.5 °C 29.6in /  1001.7hPa NW 0.9mph /  1.4km/h 2mph /  3.2km/h 92% 0in /  0.0mm 0 W/m2
04:51 49.3 °F /  9.6 °C 47.1 °F /  8.4 °C 29.6in /  1001.7hPa Calm   2mph /  3.2km/h 92% 0in /  0.0mm 0 W/m2
04:56 49.3 °F /  9.6 °C 47.1 °F /  8.4 °C 29.6in /  1001.7hPa Calm   2mph /  3.2km/h 92% 0in /  0.0mm 0 W/m2
05:01 49.1 °F /  9.5 °C 46.9 °F /  8.3 °C 29.6in /  1001.7hPa Calm   3mph /  4.8km/h 92% 0in /  0.0mm 0 W/m2
05:06 48.9 °F /  9.4 °C 46.8 °F /  8.2 °C 29.6in /  1001.7hPa WNW 0.9mph /  1.4km/h 6mph /  9.7km/h 92% 0in /  0.0mm 0 W/m2
05:11 49.1 °F /  9.5 °C 46.9 °F /  8.3 °C 29.6in /  1001.7hPa NNW 2mph /  3.2km/h 2mph /  3.2km/h 92% 0in /  0.0mm 0 W/m2
05:16 48.9 °F /  9.4 °C 46.8 °F /  8.2 °C 29.6in /  1001.7hPa Calm   6mph /  9.7km/h 92% 0in /  0.0mm 0 W/m2
05:21 48.9 °F /  9.4 °C 46.8 °F /  8.2 °C 29.6in /  1001.7hPa NW 2mph /  3.2km/h 2mph /  3.2km/h 92% 0in /  0.0mm 0 W/m2
05:26 48.9 °F /  9.4 °C 46.8 °F /  8.2 °C 29.6in /  1001.7hPa NNW 2.9mph /  4.7km/h 3mph /  4.8km/h 92% 0in /  0.0mm 0 W/m2
05:31 48.7 °F /  9.3 °C 46.6 °F /  8.1 °C 29.6in /  1002.0hPa NW 2mph /  3.2km/h 4mph /  6.4km/h 92% 0in /  0.0mm 0 W/m2
05:36 48.9 °F /  9.4 °C 46.9 °F /  8.3 °C 29.6in /  1002.0hPa NNW 4mph /  6.4km/h 5mph /  8km/h 93% 0in /  0.0mm 0 W/m2
05:41 48.9 °F /  9.4 °C 46.8 °F /  8.2 °C 29.6in /  1002.0hPa NNE 0.9mph /  1.4km/h 3mph /  4.8km/h 92% 0in /  0.0mm 0 W/m2
05:46 48.9 °F /  9.4 °C 46.8 °F /  8.2 °C 29.6in /  1002.0hPa North 2mph /  3.2km/h 3mph /  4.8km/h 92% 0in /  0.0mm 0 W/m2
05:51 48.9 °F /  9.4 °C 46.8 °F /  8.2 °C 29.6in /  1002.0hPa NNE 0.9mph /  1.4km/h 2mph /  3.2km/h 92% 0in /  0.0mm 0 W/m2
05:56 48.7 °F /  9.3 °C 46.6 °F /  8.1 °C 29.6in /  1002.0hPa NNE 2mph /  3.2km/h 2mph /  3.2km/h 92% 0in /  0.0mm 0 W/m2
06:01 48.7 °F /  9.3 °C 46.6 °F /  8.1 °C 29.6in /  1002.0hPa NW 0.9mph /  1.4km/h 3mph /  4.8km/h 92% 0in /  0.0mm 0 W/m2
06:06 48.7 °F /  9.3 °C 46.6 °F /  8.1 °C 29.6in /  1002.0hPa Calm   2mph /  3.2km/h 92% 0in /  0.0mm 0 W/m2
06:11 48.7 °F /  9.3 °C 46.6 °F /  8.1 °C 29.6in /  1002.0hPa Calm   2mph /  3.2km/h 92% 0in /  0.0mm 0 W/m2
06:16 48.7 °F /  9.3 °C 46.6 °F /  8.1 °C 29.6in /  1002.0hPa Calm   1mph /  1.6km/h 92% 0in /  0.0mm 0 W/m2
06:21 48.6 °F /  9.2 °C 46.4 °F /  8 °C 29.6in /  1002.0hPa North 2mph /  3.2km/h 5mph /  8km/h 92% 0in /  0.0mm 0 W/m2
06:26 48.6 °F /  9.2 °C 46.4 °F /  8 °C 29.6in /  1002.0hPa NE 0.9mph /  1.4km/h 3mph /  4.8km/h 92% 0in /  0.0mm 0 W/m2
06:32 48.6 °F /  9.2 °C 46.4 °F /  8 °C 29.6in /  1002.0hPa SW 2.9mph /  4.7km/h 4mph /  6.4km/h 92% 0in /  0.0mm 0 W/m2
06:37 48.6 °F /  9.2 °C 46.4 °F /  8 °C 29.6in /  1002.0hPa Calm   1mph /  1.6km/h 92% 0in /  0.0mm 0 W/m2
06:42 48.6 °F /  9.2 °C 46.4 °F /  8 °C 29.6in /  1002.0hPa Calm   1mph /  1.6km/h 92% 0in /  0.0mm 0 W/m2
06:47 48.6 °F /  9.2 °C 46.4 °F /  8 °C 29.6in /  1002.0hPa NNW 2mph /  3.2km/h 4mph /  6.4km/h 92% 0in /  0.0mm 0 W/m2
06:52 48.4 °F /  9.1 °C 46.2 °F /  7.9 °C 29.6in /  1002.0hPa Calm     92% 0in /  0.0mm 0 W/m2
06:57 48.4 °F /  9.1 °C 46.2 °F /  7.9 °C 29.6in /  1002.0hPa WSW 0.9mph /  1.4km/h 3mph /  4.8km/h 92% 0in /  0.0mm 0 W/m2
07:02 48.4 °F /  9.1 °C 46.2 °F /  7.9 °C 29.6in /  1002.0hPa Calm   2mph /  3.2km/h 92% 0in /  0.0mm 0 W/m2
07:07 48.2 °F /  9 °C 46 °F /  7.8 °C 29.6in /  1002.0hPa North 2mph /  3.2km/h 5mph /  8km/h 92% 0in /  0.0mm 0 W/m2
07:12 48 °F /  8.9 °C 45.9 °F /  7.7 °C 29.6in /  1002.0hPa West 0.9mph /  1.4km/h 1mph /  1.6km/h 92% 0in /  0.0mm 0 W/m2
07:17 47.8 °F /  8.8 °C 45.7 °F /  7.6 °C 29.6in /  1002.0hPa Calm   1mph /  1.6km/h 92% 0in /  0.0mm 0 W/m2
07:22 47.7 °F /  8.7 °C 45.5 °F /  7.5 °C 29.6in /  1002.0hPa Calm   2mph /  3.2km/h 92% 0in /  0.0mm 0 W/m2
07:27 47.5 °F /  8.6 °C 45.3 °F /  7.4 °C 29.6in /  1002.0hPa NNE 0.9mph /  1.4km/h 2mph /  3.2km/h 92% 0in /  0.0mm 0 W/m2
07:32 47.1 °F /  8.4 °C 45.1 °F /  7.3 °C 29.6in /  1002.0hPa Calm     93% 0in /  0.0mm 5 W/m2
07:37 47.1 °F /  8.4 °C 45.1 °F /  7.3 °C 29.6in /  1002.0hPa Calm   3mph /  4.8km/h 93% 0in /  0.0mm 5 W/m2
07:42 47.1 °F /  8.4 °C 45.1 °F /  7.3 °C 29.6in /  1002.4hPa West 0.9mph /  1.4km/h 3mph /  4.8km/h 93% 0in /  0.0mm 7 W/m2
07:47 47.1 °F /  8.4 °C 45.5 °F /  7.5 °C 29.6in /  1002.4hPa Calm   2mph /  3.2km/h 94% 0in /  0.0mm 9 W/m2
07:52 47.1 °F /  8.4 °C 45.5 °F /  7.5 °C 29.6in /  1002.4hPa NE 2.9mph /  4.7km/h 3mph /  4.8km/h 94% 0in /  0.0mm 16 W/m2
07:57 47.5 °F /  8.6 °C 45.9 °F /  7.7 °C 29.6in /  1002.4hPa WSW 0.9mph /  1.4km/h 2mph /  3.2km/h 94% 0in /  0.0mm 28 W/m2
08:02 47.7 °F /  8.7 °C 46 °F /  7.8 °C 29.6in /  1002.4hPa NNW 0.9mph /  1.4km/h 4mph /  6.4km/h 94% 0in /  0.0mm 25 W/m2
08:07 48 °F /  8.9 °C 46.4 °F /  8 °C 29.6in /  1002.4hPa Calm   2mph /  3.2km/h 94% 0in /  0.0mm 47 W/m2
08:12 48.2 °F /  9 °C 46.6 °F /  8.1 °C 29.6in /  1002.4hPa East 0.9mph /  1.4km/h 3mph /  4.8km/h 94% 0in /  0.0mm 28 W/m2
08:17 48.4 °F /  9.1 °C 46.4 °F /  8 °C 29.6in /  1002.4hPa Calm   2mph /  3.2km/h 93% 0in /  0.0mm 46 W/m2
08:22 48.6 °F /  9.2 °C 46.6 °F /  8.1 °C 29.6in /  1002.4hPa Calm     93% 0in /  0.0mm 33 W/m2
08:27 48.7 °F /  9.3 °C 46.8 °F /  8.2 °C 29.6in /  1002.4hPa NE 0.9mph /  1.4km/h 2mph /  3.2km/h 93% 0in /  0.0mm 37 W/m2
08:32 48.9 °F /  9.4 °C 46.9 °F /  8.3 °C 29.6in /  1002.4hPa North 2mph /  3.2km/h 2mph /  3.2km/h 93% 0in /  0.0mm 70 W/m2
08:37 49.3 °F /  9.6 °C 47.3 °F /  8.5 °C 29.6in /  1002.4hPa North 4mph /  6.4km/h 8mph /  12.9km/h 93% 0in /  0.0mm 46 W/m2
08:42 49.5 °F /  9.7 °C 47.5 °F /  8.6 °C 29.6in /  1002.4hPa NNW 2mph /  3.2km/h 4mph /  6.4km/h 93% 0in /  0.0mm 76 W/m2
08:47 49.6 °F /  9.8 °C 47.5 °F /  8.6 °C 29.6in /  1002.7hPa Calm   8mph /  12.9km/h 92% 0in /  0.0mm 49 W/m2
08:52 49.8 °F /  9.9 °C 47.7 °F /  8.7 °C 29.6in /  1002.7hPa West 2mph /  3.2km/h 4mph /  6.4km/h 92% 0in /  0.0mm 62 W/m2
09:11 50.5 °F /  10.3 °C 48 °F /  8.9 °C 29.6in /  1002.7hPa North 4.9mph /  7.9km/h 8mph /  12.9km/h 91% 0in /  0.0mm 135 W/m2
09:16 50.7 °F /  10.4 °C 48.2 °F /  9 °C 29.6in /  1002.7hPa WNW 2mph /  3.2km/h 7mph /  11.3km/h 91% 0in /  0.0mm 116 W/m2
09:21 51.1 °F /  10.6 °C 48.2 °F /  9 °C 29.6in /  1002.7hPa North 6mph /  9.7km/h 9mph /  14.5km/h 90% 0in /  0.0mm 90 W/m2
09:26 51.3 °F /  10.7 °C 48.4 °F /  9.1 °C 29.6in /  1002.7hPa NW 2.9mph /  4.7km/h 5mph /  8km/h 90% 0in /  0.0mm 120 W/m2
09:31 51.3 °F /  10.7 °C 48.4 °F /  9.1 °C 29.6in /  1002.7hPa North 0.9mph /  1.4km/h 2mph /  3.2km/h 90% 0in /  0.0mm 95 W/m2
09:36 51.4 °F /  10.8 °C 48.4 °F /  9.1 °C 29.6in /  1002.7hPa West 2mph /  3.2km/h 10mph /  16.1km/h 89% 0in /  0.0mm 102 W/m2
09:41 51.4 °F /  10.8 °C 48.4 °F /  9.1 °C 29.6in /  1002.7hPa WNW 8.1mph /  13km/h 8mph /  12.9km/h 89% 0in /  0.0mm 116 W/m2
09:46 51.4 °F /  10.8 °C 48.4 °F /  9.1 °C 29.6in /  1002.7hPa NNE 2mph /  3.2km/h 10mph /  16.1km/h 89% 0in /  0.0mm 88 W/m2
09:51 51.6 °F /  10.9 °C 48.6 °F /  9.2 °C 29.6in /  1002.7hPa NW 4.9mph /  7.9km/h 9mph /  14.5km/h 89% 0in /  0.0mm 104 W/m2
09:56 51.6 °F /  10.9 °C 48.6 °F /  9.2 °C 29.6in /  1002.7hPa NW 2mph /  3.2km/h 3mph /  4.8km/h 89% 0in /  0.0mm 67 W/m2
10:01 51.8 °F /  11 °C 48.7 °F /  9.3 °C 29.6in /  1002.7hPa WNW 0.9mph /  1.4km/h 5mph /  8km/h 89% 0in /  0.0mm 62 W/m2
10:06 52 °F /  11.1 °C 48.9 °F /  9.4 °C 29.6in /  1002.7hPa NW 4.9mph /  7.9km/h 5mph /  8km/h 89% 0in /  0.0mm 90 W/m2
10:11 52.2 °F /  11.2 °C 48.7 °F /  9.3 °C 29.6in /  1002.7hPa SW 0.9mph /  1.4km/h 6mph /  9.7km/h 88% 0in /  0.0mm 134 W/m2
10:16 52.3 °F /  11.3 °C 48.9 °F /  9.4 °C 29.6in /  1002.4hPa WNW 2.9mph /  4.7km/h 8mph /  12.9km/h 88% 0in /  0.0mm 193 W/m2
10:21 52.5 °F /  11.4 °C 49.1 °F /  9.5 °C 29.6in /  1002.4hPa NW 4.9mph /  7.9km/h 5mph /  8km/h 88% 0in /  0.0mm 262 W/m2
10:26 52.9 °F /  11.6 °C 49.5 °F /  9.7 °C 29.6in /  1002.4hPa ENE 0.9mph /  1.4km/h 4mph /  6.4km/h 88% 0in /  0.0mm 230 W/m2
10:31 53.1 °F /  11.7 °C 48.9 °F /  9.4 °C 29.6in /  1002.4hPa WNW 6.9mph /  11.1km/h 8mph /  12.9km/h 86% 0in /  0.0mm 134 W/m2
10:36 53.1 °F /  11.7 °C 49.3 °F /  9.6 °C 29.6in /  1002.7hPa NNW 2.9mph /  4.7km/h 5mph /  8km/h 87% 0in /  0.0mm 77 W/m2
10:41 52.9 °F /  11.6 °C 49.1 °F /  9.5 °C 29.6in /  1002.7hPa WNW 8.1mph /  13km/h 8mph /  12.9km/h 87% 0in /  0.0mm 79 W/m2
10:46 52.5 °F /  11.4 °C 48.7 °F /  9.3 °C 29.6in /  1002.7hPa ENE 2.9mph /  4.7km/h 3mph /  4.8km/h 87% 0in /  0.0mm 28 W/m2
10:51 52.3 °F /  11.3 °C 48.9 °F /  9.4 °C 29.6in /  1002.7hPa NNW 6mph /  9.7km/h 6mph /  9.7km/h 88% 0.02in /  0.5mm 18 W/m2
10:56 51.4 °F /  10.8 °C 47.7 °F /  8.7 °C 29.6in /  1003.0hPa ENE 2.9mph /  4.7km/h 7mph /  11.3km/h 87% 0.09in /  2.3mm 23 W/m2
11:01 50.5 °F /  10.3 °C 46.8 °F /  8.2 °C 29.6in /  1003.0hPa Calm   8mph /  12.9km/h 87% 0.14in /  3.6mm 23 W/m2
11:06 50.2 °F /  10.1 °C 47.1 °F /  8.4 °C 29.6in /  1002.7hPa NW 2mph /  3.2km/h 4mph /  6.4km/h 89% 0.16in /  4.1mm 35 W/m2
11:11 50 °F /  10 °C 47.1 °F /  8.4 °C 29.6in /  1002.7hPa NNW 0.9mph /  1.4km/h 4mph /  6.4km/h 90% 0.17in /  4.3mm 47 W/m2
11:16 49.8 °F /  9.9 °C 46.9 °F /  8.3 °C 29.6in /  1002.7hPa NNW 0.9mph /  1.4km/h 2mph /  3.2km/h 90% 0.17in /  4.3mm 100 W/m2
11:21 49.8 °F /  9.9 °C 47.3 °F /  8.5 °C 29.6in /  1002.7hPa Calm   1mph /  1.6km/h 91% 0.17in /  4.3mm 60 W/m2
11:26 49.8 °F /  9.9 °C 47.3 °F /  8.5 °C 29.6in /  1002.7hPa South 0.9mph /  1.4km/h 3mph /  4.8km/h 91% 0.17in /  4.3mm 51 W/m2
11:31 49.8 °F /  9.9 °C 47.3 °F /  8.5 °C 29.6in /  1002.7hPa North 2mph /  3.2km/h 3mph /  4.8km/h 91% 0.17in /  4.3mm 114 W/m2
11:36 50.4 °F /  10.2 °C 48.2 °F /  9 °C 29.6in /  1002.7hPa Calm   4mph /  6.4km/h 92% 0.17in /  4.3mm 81 W/m2
11:41 50.5 °F /  10.3 °C 48.4 °F /  9.1 °C 29.6in /  1002.4hPa Calm   3mph /  4.8km/h 92% 0.17in /  4.3mm 142 W/m2
11:47 50.9 °F /  10.5 °C 48.7 °F /  9.3 °C 29.6in /  1002.4hPa West 0.9mph /  1.4km/h 3mph /  4.8km/h 92% 0.17in /  4.3mm 155 W/m2
11:52 51.4 °F /  10.8 °C 49.3 °F /  9.6 °C 29.6in /  1002.4hPa WNW 0.9mph /  1.4km/h 4mph /  6.4km/h 92% 0.15in /  3.8mm 160 W/m2
11:57 52 °F /  11.1 °C 49.6 °F /  9.8 °C 29.6in /  1002.4hPa West 2mph /  3.2km/h 3mph /  4.8km/h 92% 0.07in /  1.8mm 56 W/m2
12:02 52 °F /  11.1 °C 49.5 °F /  9.7 °C 29.6in /  1002.0hPa SSE 0.9mph /  1.4km/h 2mph /  3.2km/h 91% 0.02in /  0.5mm 51 W/m2
12:07 52 °F /  11.1 °C 49.5 °F /  9.7 °C 29.6in /  1002.0hPa NW 2mph /  3.2km/h 3mph /  4.8km/h 91% 0.01in /  0.2mm 46 W/m2
12:12 52 °F /  11.1 °C 49.5 °F /  9.7 °C 29.6in /  1002.0hPa NNE 0.9mph /  1.4km/h 2mph /  3.2km/h 91% 0in /  0.0mm 58 W/m2
12:17 51.8 °F /  11 °C 49.3 °F /  9.6 °C 29.6in /  1002.0hPa ESE 2.9mph /  4.7km/h 3mph /  4.8km/h 91% 0in /  0.0mm 74 W/m2
12:22 51.6 °F /  10.9 °C 48.7 °F /  9.3 °C 29.6in /  1002.0hPa Calm   1mph /  1.6km/h 90% 0in /  0.0mm 88 W/m2
12:27 51.6 °F /  10.9 °C 48.7 °F /  9.3 °C 29.6in /  1002.0hPa Calm   3mph /  4.8km/h 90% 0in /  0.0mm 83 W/m2
12:32 51.4 °F /  10.8 °C 48.6 °F /  9.2 °C 29.6in /  1002.0hPa ENE 2.9mph /  4.7km/h 4mph /  6.4km/h 90% 0in /  0.0mm 90 W/m2
12:37 51.4 °F /  10.8 °C 48.6 °F /  9.2 °C 29.6in /  1002.0hPa Calm   2mph /  3.2km/h 90% 0in /  0.0mm 79 W/m2
12:54 52 °F /  11.1 °C 48.9 °F /  9.4 °C 29.6in /  1001.7hPa WSW 0.9mph /  1.4km/h 3mph /  4.8km/h 89% 0in /  0.0mm 42 W/m2
12:59 52 °F /  11.1 °C 48.9 °F /  9.4 °C 29.6in /  1001.7hPa WNW 2mph /  3.2km/h 5mph /  8km/h 89% 0in /  0.0mm 47 W/m2
13:04 52.2 °F /  11.2 °C 48.7 °F /  9.3 °C 29.6in /  1001.7hPa WNW 2mph /  3.2km/h 8mph /  12.9km/h 88% 0in /  0.0mm 65 W/m2
13:09 52.3 °F /  11.3 °C 48.9 °F /  9.4 °C 29.6in /  1001.7hPa WNW 2mph /  3.2km/h 3mph /  4.8km/h 88% 0in /  0.0mm 62 W/m2
13:14 52.5 °F /  11.4 °C 48.7 °F /  9.3 °C 29.6in /  1001.7hPa WSW 4mph /  6.4km/h 6mph /  9.7km/h 87% 0in /  0.0mm 46 W/m2
13:19 52.5 °F /  11.4 °C 49.1 °F /  9.5 °C 29.6in /  1001.7hPa West 2mph /  3.2km/h 4mph /  6.4km/h 88% 0in /  0.0mm 72 W/m2
13:24 52.9 °F /  11.6 °C 49.1 °F /  9.5 °C 29.6in /  1001.7hPa NNW 0.9mph /  1.4km/h 9mph /  14.5km/h 87% 0in /  0.0mm 135 W/m2
13:29 53.1 °F /  11.7 °C 49.3 °F /  9.6 °C 29.6in /  1001.7hPa Calm   2mph /  3.2km/h 87% 0in /  0.0mm 216 W/m2
13:34 53.2 °F /  11.8 °C 49.1 °F /  9.5 °C 29.6in /  1001.4hPa WNW 2.9mph /  4.7km/h 3mph /  4.8km/h 86% 0in /  0.0mm 195 W/m2
13:39 53.6 °F /  12 °C 49.3 °F /  9.6 °C 29.6in /  1001.7hPa Calm   8mph /  12.9km/h 85% 0in /  0.0mm 176 W/m2
13:44 53.8 °F /  12.1 °C 49.1 °F /  9.5 °C 29.6in /  1001.7hPa ESE 6mph /  9.7km/h 10mph /  16.1km/h 84% 0in /  0.0mm 69 W/m2
13:49 53.8 °F /  12.1 °C 49.1 °F /  9.5 °C 29.6in /  1001.7hPa NW 2.9mph /  4.7km/h 7mph /  11.3km/h 84% 0in /  0.0mm 91 W/m2
13:54 53.8 °F /  12.1 °C 49.1 °F /  9.5 °C 29.6in /  1001.7hPa NW 2mph /  3.2km/h 10mph /  16.1km/h 84% 0.01in /  0.2mm 118 W/m2
13:59 53.2 °F /  11.8 °C 48.6 °F /  9.2 °C 29.6in /  1001.7hPa WNW 0.9mph /  1.4km/h 6mph /  9.7km/h 84% 0.01in /  0.2mm 51 W/m2
14:04 53.1 °F /  11.7 °C 48.4 °F /  9.1 °C 29.6in /  1001.7hPa West 0.9mph /  1.4km/h 8mph /  12.9km/h 84% 0.01in /  0.2mm 70 W/m2
14:09 52.9 °F /  11.6 °C 48.6 °F /  9.2 °C 29.6in /  1001.7hPa NW 2mph /  3.2km/h 4mph /  6.4km/h 85% 0.01in /  0.2mm 98 W/m2
14:14 52.7 °F /  11.5 °C 48 °F /  8.9 °C 29.6in /  1001.4hPa NW 0.9mph /  1.4km/h 2mph /  3.2km/h 84% 0.01in /  0.2mm 97 W/m2
14:19 52.5 °F /  11.4 °C 47.8 °F /  8.8 °C 29.6in /  1001.4hPa WNW 2mph /  3.2km/h 6mph /  9.7km/h 84% 0.01in /  0.2mm 63 W/m2
14:24 52.5 °F /  11.4 °C 47.8 °F /  8.8 °C 29.6in /  1001.4hPa NW 0.9mph /  1.4km/h 8mph /  12.9km/h 84% 0.01in /  0.2mm 40 W/m2
14:29 52.5 °F /  11.4 °C 47.5 °F /  8.6 °C 29.6in /  1001.4hPa WNW 2.9mph /  4.7km/h 3mph /  4.8km/h 83% 0.01in /  0.2mm 39 W/m2
14:34 52.9 °F /  11.6 °C 47.5 °F /  8.6 °C 29.6in /  1001.4hPa WNW 6.9mph /  11.1km/h 9mph /  14.5km/h 82% 0.01in /  0.2mm 35 W/m2
14:39 52.9 °F /  11.6 °C 47.5 °F /  8.6 °C 29.6in /  1001.4hPa West 4mph /  6.4km/h 4mph /  6.4km/h 82% 0.01in /  0.2mm 32 W/m2
14:44 52.9 °F /  11.6 °C 47.3 °F /  8.5 °C 29.6in /  1001.4hPa Calm   4mph /  6.4km/h 81% 0.01in /  0.2mm 42 W/m2
14:49 52.9 °F /  11.6 °C 47.5 °F /  8.6 °C 29.6in /  1001.4hPa West 0.9mph /  1.4km/h 3mph /  4.8km/h 82% 0.01in /  0.2mm 74 W/m2
14:54 52.7 °F /  11.5 °C 47.7 °F /  8.7 °C 29.6in /  1001.4hPa Calm   4mph /  6.4km/h 83% 0in /  0.0mm 58 W/m2
14:59 52.5 °F /  11.4 °C 47.5 °F /  8.6 °C 29.6in /  1001.4hPa NW 2mph /  3.2km/h 4mph /  6.4km/h 83% 0in /  0.0mm 53 W/m2
15:04 52.5 °F /  11.4 °C 47.1 °F /  8.4 °C 29.6in /  1001.4hPa WNW 2mph /  3.2km/h 3mph /  4.8km/h 82% 0in /  0.0mm 58 W/m2
15:10 52.7 °F /  11.5 °C 47.3 °F /  8.5 °C 29.6in /  1001.4hPa Calm   3mph /  4.8km/h 82% 0in /  0.0mm 54 W/m2
15:15 52.7 °F /  11.5 °C 47.7 °F /  8.7 °C 29.6in /  1001.4hPa NNE 0.9mph /  1.4km/h 2mph /  3.2km/h 83% 0in /  0.0mm 39 W/m2
15:20 52.7 °F /  11.5 °C 47.1 °F /  8.4 °C 29.6in /  1001.4hPa WSW 2mph /  3.2km/h 3mph /  4.8km/h 81% 0in /  0.0mm 33 W/m2
15:25 52.9 °F /  11.6 °C 47.3 °F /  8.5 °C 29.6in /  1001.4hPa WNW 2mph /  3.2km/h 3mph /  4.8km/h 81% 0in /  0.0mm 33 W/m2
15:30 52.9 °F /  11.6 °C 47.3 °F /  8.5 °C 29.6in /  1001.4hPa Calm   3mph /  4.8km/h 81% 0in /  0.0mm 39 W/m2
15:35 52.9 °F /  11.6 °C 47.5 °F /  8.6 °C 29.6in /  1001.4hPa NNW 2mph /  3.2km/h 2mph /  3.2km/h 82% 0in /  0.0mm 37 W/m2
15:40 52.5 °F /  11.4 °C 47.1 °F /  8.4 °C 29.6in /  1001.0hPa NW 0.9mph /  1.4km/h 2mph /  3.2km/h 82% 0in /  0.0mm 33 W/m2
15:45 52.5 °F /  11.4 °C 46.9 °F /  8.3 °C 29.6in /  1001.0hPa SE 0.9mph /  1.4km/h 3mph /  4.8km/h 81% 0in /  0.0mm 30 W/m2
15:50 52.5 °F /  11.4 °C 47.5 °F /  8.6 °C 29.6in /  1001.4hPa Calm     83% 0in /  0.0mm 30 W/m2
15:55 52.3 °F /  11.3 °C 47.7 °F /  8.7 °C 29.6in /  1001.0hPa West 0.9mph /  1.4km/h 3mph /  4.8km/h 84% 0in /  0.0mm 32 W/m2
16:00 52 °F /  11.1 °C 46.9 °F /  8.3 °C 29.6in /  1001.0hPa Calm   4mph /  6.4km/h 83% 0in /  0.0mm 35 W/m2
16:05 51.8 °F /  11 °C 47.1 °F /  8.4 °C 29.6in /  1001.0hPa Calm     84% 0in /  0.0mm 30 W/m2
16:10 51.6 °F /  10.9 °C 47.5 °F /  8.6 °C 29.6in /  1001.0hPa Calm   4mph /  6.4km/h 86% 0in /  0.0mm 25 W/m2
16:15 51.3 °F /  10.7 °C 47.3 °F /  8.5 °C 29.6in /  1001.0hPa Calm   1mph /  1.6km/h 86% 0in /  0.0mm 21 W/m2
16:20 50.9 °F /  10.5 °C 47.1 °F /  8.4 °C 29.6in /  1001.0hPa Calm     87% 0in /  0.0mm 25 W/m2
16:25 50.5 °F /  10.3 °C 47.1 °F /  8.4 °C 29.6in /  1001.4hPa Calm     88% 0in /  0.0mm 21 W/m2
16:30 50.4 °F /  10.2 °C 46.9 °F /  8.3 °C 29.6in /  1001.0hPa SE 0.9mph /  1.4km/h 2mph /  3.2km/h 88% 0in /  0.0mm 25 W/m2
16:35 50.2 °F /  10.1 °C 47.1 °F /  8.4 °C 29.6in /  1001.0hPa Calm     89% 0in /  0.0mm 28 W/m2
16:40 49.8 °F /  9.9 °C 46.8 °F /  8.2 °C 29.6in /  1001.0hPa Calm   2mph /  3.2km/h 89% 0in /  0.0mm 26 W/m2
16:45 49.6 °F /  9.8 °C 46.8 °F /  8.2 °C 29.6in /  1001.0hPa Calm     90% 0in /  0.0mm 25 W/m2
16:50 49.5 °F /  9.7 °C 46.6 °F /  8.1 °C 29.6in /  1001.0hPa Calm     90% 0in /  0.0mm 19 W/m2
16:55 49.3 °F /  9.6 °C 46.8 °F /  8.2 °C 29.6in /  1001.0hPa Calm   1mph /  1.6km/h 91% 0in /  0.0mm 16 W/m2
17:00 48.9 °F /  9.4 °C 46.4 °F /  8 °C 29.6in /  1001.0hPa Calm     91% 0in /  0.0mm 12 W/m2
17:05 48.7 °F /  9.3 °C 46.6 °F /  8.1 °C 29.6in /  1001.0hPa Calm   1mph /  1.6km/h 92% 0in /  0.0mm 9 W/m2
17:10 48.7 °F /  9.3 °C 46.6 °F /  8.1 °C 29.6in /  1001.4hPa Calm   1mph /  1.6km/h 92% 0in /  0.0mm 5 W/m2
17:15 48.7 °F /  9.3 °C 46.8 °F /  8.2 °C 29.6in /  1001.4hPa Calm   1mph /  1.6km/h 93% 0in /  0.0mm 0 W/m2
17:20 48.7 °F /  9.3 °C 46.8 °F /  8.2 °C 29.6in /  1001.4hPa SSW 2mph /  3.2km/h 3mph /  4.8km/h 93% 0in /  0.0mm 0 W/m2
17:25 48.7 °F /  9.3 °C 46.6 °F /  8.1 °C 29.6in /  1001.4hPa Calm   1mph /  1.6km/h 92% 0in /  0.0mm 0 W/m2
17:30 48.7 °F /  9.3 °C 46.6 °F /  8.1 °C 29.6in /  1001.4hPa East 0.9mph /  1.4km/h 1mph /  1.6km/h 92% 0in /  0.0mm 0 W/m2
17:35 48.7 °F /  9.3 °C 46.6 °F /  8.1 °C 29.6in /  1001.4hPa East 2mph /  3.2km/h 2mph /  3.2km/h 92% 0in /  0.0mm 0 W/m2
17:40 48.7 °F /  9.3 °C 46.2 °F /  7.9 °C 29.6in /  1001.4hPa Calm     91% 0in /  0.0mm 0 W/m2
17:45 48.6 °F /  9.2 °C 46 °F /  7.8 °C 29.6in /  1001.4hPa Calm   1mph /  1.6km/h 91% 0in /  0.0mm 0 W/m2
17:50 48.4 °F /  9.1 °C 45.9 °F /  7.7 °C 29.6in /  1001.4hPa Calm     91% 0in /  0.0mm 0 W/m2
17:55 48 °F /  8.9 °C 45.9 °F /  7.7 °C 29.6in /  1001.4hPa Calm   1mph /  1.6km/h 92% 0in /  0.0mm 0 W/m2
18:00 47.8 °F /  8.8 °C 45.7 °F /  7.6 °C 29.6in /  1001.4hPa Calm     92% 0in /  0.0mm 0 W/m2
18:05 47.7 °F /  8.7 °C 45.5 °F /  7.5 °C 29.6in /  1001.4hPa Calm     92% 0in /  0.0mm 0 W/m2
18:10 47.5 °F /  8.6 °C 45.3 °F /  7.4 °C 29.6in /  1001.4hPa Calm     92% 0in /  0.0mm 0 W/m2
18:15 47.1 °F /  8.4 °C 45 °F /  7.2 °C 29.6in /  1001.4hPa Calm     92% 0in /  0.0mm 0 W/m2
18:20 46.9 °F /  8.3 °C 45 °F /  7.2 °C 29.6in /  1001.4hPa Calm     93% 0in /  0.0mm 0 W/m2
18:25 46.9 °F /  8.3 °C 45 °F /  7.2 °C 29.6in /  1001.4hPa Calm     93% 0in /  0.0mm 0 W/m2
18:30 46.8 °F /  8.2 °C 44.8 °F /  7.1 °C 29.6in /  1001.4hPa Calm     93% 0in /  0.0mm 0 W/m2
18:35 46.4 °F /  8 °C 44.4 °F /  6.9 °C 29.6in /  1001.4hPa Calm     93% 0in /  0.0mm 0 W/m2
18:40 46.2 °F /  7.9 °C 44.2 °F /  6.8 °C 29.6in /  1001.7hPa Calm     93% 0in /  0.0mm 0 W/m2
18:45 46 °F /  7.8 °C 44.1 °F /  6.7 °C 29.6in /  1001.7hPa Calm     93% 0in /  0.0mm 0 W/m2
18:50 45.9 °F /  7.7 °C 44.2 °F /  6.8 °C 29.6in /  1001.7hPa Calm     94% 0in /  0.0mm 0 W/m2
18:55 45.7 °F /  7.6 °C 44.1 °F /  6.7 °C 29.6in /  1001.7hPa Calm     94% 0in /  0.0mm 0 W/m2
19:00 45.3 °F /  7.4 °C 43.7 °F /  6.5 °C 29.6in /  1001.7hPa Calm     94% 0in /  0.0mm 0 W/m2
Juneau County Weather
Compliments of Weather Underground - 2 mb